Time;durP1;ratioP1;P1;durP2;ratioP2;P2;SDS_P1;SDS_P2;PMS_P1;PMS_P2;Temp;Humidity;BMP_temperature;BMP_pressure;BME280_temperature;BME280_humidity;BME280_pressure;Samples;Min_cycle;Max_cycle;Signal;HPM_P1;HPM_P2
2024/01/23 00:00:13;;;;;;;14.15;3.63;;;;;;;18.16;53.95;101640.09;5074754;28;20039;-57
2024/01/23 00:02:38;;;;;;;12.60;4.05;;;;;;;18.15;54.08;101645.81;5080364;28;20039;-47
2024/01/23 00:05:04;;;;;;;11.93;3.65;;;;;;;18.14;54.18;101663.38;5057858;28;20039;-46
2024/01/23 00:07:29;;;;;;;13.18;3.50;;;;;;;18.11;54.13;101665.53;5080560;28;20031;-44
2024/01/23 00:09:55;;;;;;;12.40;3.67;;;;;;;18.14;53.96;101663.38;5081120;28;20024;-43
2024/01/23 00:12:20;;;;;;;14.82;3.05;;;;;;;18.14;54.27;101682.59;5047745;28;20388;-45
2024/01/23 00:14:45;;;;;;;17.95;3.85;;;;;;;18.12;54.00;101682.81;5084286;28;20027;-44
2024/01/23 00:17:11;;;;;;;14.88;4.25;;;;;;;18.12;54.13;101691.03;5074228;28;20456;-47
2024/01/23 00:19:36;;;;;;;14.57;4.03;;;;;;;18.12;54.34;101680.91;5084622;28;20036;-46
2024/01/23 00:22:02;;;;;;;11.13;4.05;;;;;;;18.11;53.95;101676.50;5082629;28;20044;-46
2024/01/23 00:24:27;;;;;;;10.55;3.70;;;;;;;18.11;54.07;101682.00;5083092;28;20020;-47
2024/01/23 00:26:53;;;;;;;11.48;3.60;;;;;;;18.14;54.19;101683.41;5064998;28;20122;-44
2024/01/23 00:29:18;;;;;;;12.00;3.70;;;;;;;18.11;54.02;101676.50;5079787;28;20115;-57
2024/01/23 00:31:44;;;;;;;14.30;4.40;;;;;;;18.10;54.23;101682.25;5083751;28;20189;-57
2024/01/23 00:34:09;;;;;;;13.30;4.00;;;;;;;18.09;54.53;101699.81;5076971;28;20077;-57
2024/01/23 00:36:35;;;;;;;11.65;3.63;;;;;;;18.09;54.24;101697.88;5059790;28;20016;-57
2024/01/23 00:39:00;;;;;;;15.65;4.50;;;;;;;18.09;54.10;101703.38;5066113;28;20017;-43
2024/01/23 00:41:26;;;;;;;12.50;3.78;;;;;;;18.09;54.08;101706.09;5063407;28;20110;-48
2024/01/23 00:43:51;;;;;;;14.98;4.00;;;;;;;18.07;54.00;101716.50;5080060;28;20016;-46
2024/01/23 00:46:16;;;;;;;15.25;4.10;;;;;;;18.06;54.19;101714.88;5072402;28;20495;-45
2024/01/23 00:48:42;;;;;;;12.85;3.97;;;;;;;18.05;54.09;101723.31;5072245;28;20021;-44
2024/01/23 00:51:07;;;;;;;10.02;3.63;;;;;;;18.02;53.98;101723.84;5078787;28;20024;-44
2024/01/23 00:53:35;;;;;;;14.95;3.90;;;;;;;18.01;54.26;101720.25;5074450;28;20489;-43
2024/01/23 00:56:00;;;;;;;12.23;3.35;;;;;;;18.01;54.17;101720.25;5081374;28;20111;-48
2024/01/23 00:58:26;;;;;;;15.20;4.05;;;;;;;18.00;54.02;101717.78;5074449;28;20085;-42
2024/01/23 01:00:51;;;;;;;11.30;3.92;;;;;;;18.01;53.83;101723.00;5082551;28;20115;-56
2024/01/23 01:03:17;;;;;;;13.50;4.00;;;;;;;18.00;53.97;101743.31;5084490;28;20047;-56
2024/01/23 01:05:42;;;;;;;11.75;3.78;;;;;;;17.98;53.71;101742.72;5081478;28;20027;-56
2024/01/23 01:08:08;;;;;;;11.95;3.67;;;;;;;17.98;53.84;101744.63;5075769;28;20043;-46
2024/01/23 01:10:33;;;;;;;12.05;3.38;;;;;;;17.97;53.97;101757.53;5074713;28;20069;-46
2024/01/23 01:12:59;;;;;;;14.15;4.07;;;;;;;17.96;53.71;101761.34;5080310;28;20028;-43
2024/01/23 01:15:25;;;;;;;12.90;3.78;;;;;;;17.94;53.89;101764.34;5060302;28;20131;-44
2024/01/23 01:17:50;;;;;;;12.32;3.90;;;;;;;17.93;53.85;101775.56;5083277;28;20043;-45
2024/01/23 01:20:15;;;;;;;15.30;3.90;;;;;;;17.89;53.87;101774.38;5085217;28;20027;-44
2024/01/23 01:22:41;;;;;;;12.27;3.50;;;;;;;17.88;54.00;101775.47;5085150;28;20020;-44
2024/01/23 01:25:08;;;;;;;12.57;3.60;;;;;;;17.87;53.65;101780.13;5082488;28;20071;-47
2024/01/23 01:27:34;;;;;;;13.63;3.78;;;;;;;17.89;53.86;101783.47;5078571;28;20425;-45
2024/01/23 01:29:59;;;;;;;11.13;3.55;;;;;;;17.88;53.92;101783.69;5086621;28;20104;-45
2024/01/23 01:32:25;;;;;;;11.20;3.65;;;;;;;17.85;53.79;101787.78;5076227;28;20031;-44
2024/01/23 01:34:50;;;;;;;14.30;4.13;;;;;;;17.86;53.79;101796.84;5076962;28;20052;-48
2024/01/23 01:37:15;;;;;;;11.45;3.88;;;;;;;17.82;53.81;101799.25;5080056;28;20470;-43
2024/01/23 01:39:41;;;;;;;12.20;4.13;;;;;;;17.81;53.47;101794.84;5077316;28;20034;-46
2024/01/23 01:42:06;;;;;;;11.88;3.88;;;;;;;17.79;53.95;101795.13;5082297;28;20020;-47
2024/01/23 01:44:32;;;;;;;12.98;4.40;;;;;;;17.78;53.43;101806.31;5078967;28;20429;-46
2024/01/23 01:46:59;;;;;;;14.57;3.58;;;;;;;17.77;53.99;101824.69;5085450;28;20615;-43
2024/01/23 01:49:24;;;;;;;15.10;4.10;;;;;;;17.77;53.95;101808.25;5082244;28;20024;-43
2024/01/23 01:51:50;;;;;;;15.32;4.22;;;;;;;17.76;53.95;101806.56;5061868;28;20081;-47
2024/01/23 01:54:16;;;;;;;13.38;3.88;;;;;;;17.74;53.97;101821.63;5079660;28;20086;-48
2024/01/23 01:56:41;;;;;;;14.63;3.63;;;;;;;17.74;53.95;101836.19;5062451;28;20024;-46
2024/01/23 01:59:07;;;;;;;13.73;4.18;;;;;;;17.76;54.12;101833.19;5068303;28;20032;-43
2024/01/23 02:01:33;;;;;;;11.98;4.20;;;;;;;17.73;53.96;101836.41;5078051;28;20151;-44
2024/01/23 02:03:58;;;;;;;18.67;4.55;;;;;;;17.76;54.01;101838.66;5061732;28;20162;-41
2024/01/23 02:06:24;;;;;;;11.77;3.95;;;;;;;17.78;53.91;101833.72;5080502;28;20032;-48
2024/01/23 02:08:50;;;;;;;17.08;4.72;;;;;;;17.76;53.77;101853.19;5078599;28;20477;-45
2024/01/23 02:11:15;;;;;;;18.90;4.40;;;;;;;17.70;53.71;101851.44;5074640;28;20032;-44
2024/01/23 02:13:41;;;;;;;13.57;3.90;;;;;;;17.70;53.94;101867.09;5068491;28;20040;-45
2024/01/23 02:16:07;;;;;;;13.52;3.95;;;;;;;17.69;53.74;101868.97;5079642;28;20032;-46
2024/01/23 02:18:33;;;;;;;12.07;3.80;;;;;;;17.70;54.08;101869.81;5086344;28;20027;-45
2024/01/23 02:20:58;;;;;;;10.30;3.72;;;;;;;17.71;53.81;101874.22;5081310;28;20452;-43
2024/01/23 02:23:30;;;;;;;11.85;3.47;;;;;;;17.68;53.45;101883.75;5075546;28;20089;-47
2024/01/23 02:25:55;;;;;;;12.82;4.10;;;;;;;17.65;53.61;101879.59;5077061;28;20024;-47
2024/01/23 02:28:21;;;;;;;12.65;3.88;;;;;;;17.64;53.70;101893.56;5079759;28;20028;-43
2024/01/23 02:30:46;;;;;;;15.73;4.20;;;;;;;17.64;53.74;101905.38;5074419;28;20031;-57
2024/01/23 02:33:12;;;;;;;12.77;3.70;;;;;;;17.67;53.98;101905.94;5076639;28;20021;-54
2024/01/23 02:35:40;;;;;;;11.48;3.97;;;;;;;17.68;53.72;101896.66;5085438;28;20031;-57
2024/01/23 02:38:07;;;;;;;12.43;4.07;;;;;;;17.64;53.75;101913.59;5062446;28;20496;-55
2024/01/23 02:40:33;;;;;;;12.95;4.25;;;;;;;17.62;53.83;101902.06;5084361;28;20157;-57
2024/01/23 02:42:58;;;;;;;13.32;3.78;;;;;;;17.61;53.93;101916.84;5079105;28;20499;-56
2024/01/23 02:45:24;;;;;;;15.95;4.57;;;;;;;17.62;53.64;101914.91;5080222;28;20028;-57
2024/01/23 02:47:49;;;;;;;13.52;4.07;;;;;;;17.60;53.89;101920.66;5083476;28;20034;-56
2024/01/23 02:50:15;;;;;;;12.65;3.65;;;;;;;17.58;53.91;101944.75;5057929;28;20033;-56
2024/01/23 02:52:40;;;;;;;17.80;4.57;;;;;;;17.58;53.77;101939.28;5084442;28;20119;-56
2024/01/23 02:55:06;;;;;;;15.70;4.07;;;;;;;17.56;53.76;101938.69;5064205;28;20577;-57
2024/01/23 02:57:31;;;;;;;12.55;3.72;;;;;;;17.56;53.80;101943.31;5074060;28;20038;-56
2024/01/23 02:59:57;;;;;;;13.10;3.70;;;;;;;17.56;53.93;101955.13;5080383;28;20491;-57
2024/01/23 03:02:23;;;;;;;14.52;3.67;;;;;;;17.58;53.69;101954.88;5073272;28;20144;-44
2024/01/23 03:04:48;;;;;;;16.33;4.45;;;;;;;17.58;53.80;101958.47;5075141;28;20027;-56
2024/01/23 03:07:14;;;;;;;12.55;3.90;;;;;;;17.56;53.82;101966.09;5079378;28;20081;-57
2024/01/23 03:09:39;;;;;;;15.30;3.65;;;;;;;17.56;53.76;101963.34;5085010;28;20020;-57
2024/01/23 03:12:18;;;;;;;11.63;3.53;;;;;;;17.56;53.90;101978.94;5068798;28;20051;-46
2024/01/23 03:14:45;;;;;;;15.93;4.22;;;;;;;17.53;53.66;101977.53;5078368;28;20224;-56
2024/01/23 03:17:11;;;;;;;11.90;3.72;;;;;;;17.52;53.63;101994.22;5081442;28;20046;-56
2024/01/23 03:19:37;;;;;;;10.35;3.22;;;;;;;17.52;53.65;101994.22;5083538;28;20048;-55
2024/01/23 03:22:03;;;;;;;12.18;4.10;;;;;;;17.52;53.84;102010.69;5079028;28;20039;-57
2024/01/23 03:24:28;;;;;;;12.55;4.07;;;;;;;17.52;53.89;101995.06;5071760;28;20016;-57
2024/01/23 03:26:54;;;;;;;13.65;3.75;;;;;;;17.47;53.56;102006.78;5054527;28;20481;-57
2024/01/23 03:29:19;;;;;;;18.02;4.40;;;;;;;17.47;53.91;102005.94;5068910;28;20477;-57
2024/01/23 03:31:44;;;;;;;12.95;3.90;;;;;;;17.46;53.92;101999.63;5069809;28;20079;-57
2024/01/23 03:34:10;;;;;;;10.13;3.47;;;;;;;17.48;53.76;102008.44;5079028;28;20024;-56
2024/01/23 03:36:35;;;;;;;10.15;3.33;;;;;;;17.47;53.81;102023.22;5077916;28;20536;-57
2024/01/23 03:39:00;;;;;;;11.65;3.72;;;;;;;17.47;53.88;102017.75;5082333;28;20031;-46
2024/01/23 03:41:26;;;;;;;9.57;3.40;;;;;;;17.45;53.80;102019.88;5083216;28;20103;-49
2024/01/23 03:43:51;;;;;;;12.88;3.67;;;;;;;17.45;53.73;102033.59;5078839;28;20020;-47
2024/01/23 03:46:16;;;;;;;15.40;3.90;;;;;;;17.42;53.59;102035.97;5073379;28;20035;-47
2024/01/23 03:48:42;;;;;;;14.30;3.60;;;;;;;17.42;53.79;102053.25;5062471;28;20099;-46
2024/01/23 03:51:08;;;;;;;14.10;3.97;;;;;;;17.43;53.82;102051.34;5060597;28;20035;-42
2024/01/23 03:53:33;;;;;;;14.63;4.40;;;;;;;17.41;53.92;102059.84;5072990;28;20040;-46
2024/01/23 03:55:58;;;;;;;12.50;3.78;;;;;;;17.44;53.71;102069.47;5084326;28;20040;-46
2024/01/23 03:58:24;;;;;;;14.15;3.92;;;;;;;17.40;53.75;102071.88;5083932;28;20391;-57
2024/01/23 04:00:49;;;;;;;15.27;4.18;;;;;;;17.39;53.91;102072.94;5082828;28;20030;-56
2024/01/23 04:03:14;;;;;;;10.88;3.60;;;;;;;17.41;53.67;102089.97;5072174;28;20357;-54
2024/01/23 04:05:40;;;;;;;18.20;3.90;;;;;;;17.40;53.68;102085.56;5083343;28;20036;-46
2024/01/23 04:08:05;;;;;;;19.48;3.95;;;;;;;17.35;53.42;102088.22;5054733;28;20221;-45
2024/01/23 04:10:31;;;;;;;13.95;4.53;;;;;;;17.35;53.64;102088.22;5078168;28;20127;-48
2024/01/23 04:12:56;;;;;;;14.13;4.10;;;;;;;17.35;53.74;102090.09;5080464;28;20036;-43
2024/01/23 04:15:22;;;;;;;12.95;3.85;;;;;;;17.33;53.70;102093.91;5076378;28;20028;-57
2024/01/23 04:17:47;;;;;;;13.40;3.65;;;;;;;17.34;53.76;102100.25;5066309;28;20077;-44
2024/01/23 04:20:12;;;;;;;14.93;4.07;;;;;;;17.35;53.60;102106.53;5069710;28;20028;-56
2024/01/23 04:22:38;;;;;;;12.90;3.88;;;;;;;17.34;53.70;102119.41;5065282;28;20393;-57
2024/01/23 04:25:04;;;;;;;11.50;3.83;;;;;;;17.32;53.68;102130.59;5072735;28;20370;-57
2024/01/23 04:27:30;;;;;;;12.38;3.40;;;;;;;17.32;53.95;102127.03;5079891;28;20039;-56
2024/01/23 04:29:56;;;;;;;12.63;3.92;;;;;;;17.33;53.71;102140.50;5078829;28;20115;-56
2024/01/23 04:32:21;;;;;;;14.73;3.75;;;;;;;17.33;53.84;102142.41;5067349;28;20029;-57
2024/01/23 04:34:47;;;;;;;14.10;3.60;;;;;;;17.32;53.76;102152.53;5068237;28;20225;-57
2024/01/23 04:37:13;;;;;;;14.20;4.10;;;;;;;17.30;53.67;102146.47;5072887;28;20028;-57
2024/01/23 04:39:38;;;;;;;14.05;4.07;;;;;;;17.32;53.70;102147.03;5062952;28;20020;-57
2024/01/23 04:42:04;;;;;;;14.20;3.33;;;;;;;17.30;53.75;102156.59;5065459;28;20028;-56
2024/01/23 04:44:29;;;;;;;15.48;4.28;;;;;;;17.31;53.71;102158.25;5048218;28;20045;-57
2024/01/23 04:46:54;;;;;;;11.48;3.63;;;;;;;17.28;53.97;102162.31;5070770;28;20020;-57
2024/01/23 04:49:20;;;;;;;14.75;4.10;;;;;;;17.26;53.46;102164.44;5070658;28;20079;-57
2024/01/23 04:51:45;;;;;;;10.73;3.30;;;;;;;17.29;53.71;102168.63;5079455;28;20645;-57
2024/01/23 04:54:11;;;;;;;14.85;3.90;;;;;;;17.28;53.72;102181.50;5081987;28;20133;-44
2024/01/23 04:56:36;;;;;;;12.38;3.38;;;;;;;17.29;53.69;102180.41;5086752;28;20504;-46
2024/01/23 04:59:02;;;;;;;9.98;3.25;;;;;;;17.30;53.80;102179.34;5082146;28;20115;-42
2024/01/23 05:01:28;;;;;;;11.40;3.53;;;;;;;17.28;53.78;102177.94;5080223;28;20032;-42
2024/01/23 05:03:53;;;;;;;14.15;4.20;;;;;;;17.27;53.80;102177.06;5082511;28;20685;-41
2024/01/23 05:06:18;;;;;;;12.32;3.47;;;;;;;17.30;53.58;102186.72;5082686;28;20371;-45
2024/01/23 05:08:44;;;;;;;16.23;4.10;;;;;;;17.35;53.48;102186.88;5082185;28;20028;-57
2024/01/23 05:11:09;;;;;;;14.43;3.75;;;;;;;17.41;53.48;102185.06;5078835;28;20095;-57
2024/01/23 05:13:35;;;;;;;11.80;3.58;;;;;;;17.44;53.44;102182.66;5087191;28;20089;-57
2024/01/23 05:16:00;;;;;;;10.18;3.88;;;;;;;17.52;53.33;102191.59;5081147;28;20020;-57
2024/01/23 05:18:25;;;;;;;10.93;3.47;;;;;;;17.58;53.26;102201.59;5085933;28;20052;-57
2024/01/23 05:20:51;;;;;;;13.93;3.47;;;;;;;17.62;53.10;102209.09;5085435;28;20482;-56
2024/01/23 05:23:16;;;;;;;13.90;4.15;;;;;;;17.65;53.02;102207.78;5065687;28;20228;-58
2024/01/23 05:25:42;;;;;;;9.38;3.60;;;;;;;17.70;53.18;102209.81;5080555;28;20514;-57
2024/01/23 05:28:08;;;;;;;11.38;3.60;;;;;;;17.78;53.25;102210.25;5077415;28;20040;-57
2024/01/23 05:30:33;;;;;;;10.25;3.30;;;;;;;17.88;53.05;102214.28;5083195;28;20028;-57
2024/01/23 05:32:59;;;;;;;13.05;3.35;;;;;;;17.99;53.13;102226.31;5079538;28;20480;-57
2024/01/23 05:35:24;;;;;;;11.55;3.30;;;;;;;18.05;53.00;102233.56;5085262;28;20016;-58
2024/01/23 05:37:50;;;;;;;10.05;2.88;;;;;;;18.14;52.95;102228.56;5086822;28;20108;-57
2024/01/23 05:40:15;;;;;;;15.27;3.85;;;;;;;18.20;53.19;102230.34;5084581;28;20381;-58
2024/01/23 05:42:40;;;;;;;10.02;3.50;;;;;;;18.28;52.96;102240.91;5082629;28;20016;-57
2024/01/23 05:45:06;;;;;;;11.10;3.53;;;;;;;18.36;52.98;102239.69;5084838;28;20028;-58
2024/01/23 05:47:31;;;;;;;10.70;3.30;;;;;;;18.42;52.92;102245.03;5080990;28;20028;-57
2024/01/23 05:49:57;;;;;;;11.13;3.40;;;;;;;18.46;52.89;102247.28;5075578;28;20024;-57
2024/01/23 05:52:22;;;;;;;9.95;3.38;;;;;;;18.49;52.78;102260.50;5067318;28;20419;-43
2024/01/23 05:54:49;;;;;;;14.50;3.55;;;;;;;18.51;53.07;102261.09;5081945;28;20088;-46
2024/01/23 05:57:15;;;;;;;8.40;3.30;;;;;;;18.49;52.58;102261.34;5086655;28;20645;-44
2024/01/23 05:59:40;;;;;;;14.00;3.50;;;;;;;18.46;52.67;102263.75;5081427;28;20043;-45
2024/01/23 06:02:06;;;;;;;11.88;3.53;;;;;;;18.41;52.92;102265.31;5085750;28;20055;-44
2024/01/23 06:04:31;;;;;;;10.45;3.55;;;;;;;18.40;52.92;102271.88;5081750;28;20024;-42
2024/01/23 06:06:57;;;;;;;14.00;3.45;;;;;;;18.42;52.72;102279.88;5074454;28;20504;-47
2024/01/23 06:09:22;;;;;;;15.55;3.83;;;;;;;18.41;52.72;102270.78;5084368;28;20185;-42
2024/01/23 06:11:48;;;;;;;13.15;3.30;;;;;;;18.39;52.83;102280.34;5080181;28;20466;-58
2024/01/23 06:14:13;;;;;;;14.15;3.60;;;;;;;18.39;52.57;102267.47;5075338;28;20186;-43
2024/01/23 06:16:39;;;;;;;13.55;3.45;;;;;;;18.36;52.64;102273.44;5074236;28;20032;-46
2024/01/23 06:19:08;;;;;;;9.73;3.60;;;;;;;18.39;52.69;102283.09;5085162;28;20050;-45
2024/01/23 06:21:34;;;;;;;14.38;3.40;;;;;;;18.38;52.80;102293.25;5082821;28;20074;-43
2024/01/23 06:23:59;;;;;;;13.20;3.60;;;;;;;18.39;52.69;102299.56;5085275;28;20490;-45
2024/01/23 06:26:24;;;;;;;11.15;3.38;;;;;;;18.41;52.77;102308.41;5082565;28;20416;-45
2024/01/23 06:28:50;;;;;;;13.20;3.55;;;;;;;18.38;52.70;102308.88;5050102;28;20081;-44
2024/01/23 06:31:15;;;;;;;9.93;3.38;;;;;;;18.36;52.57;102311.88;5072459;28;20666;-48
2024/01/23 06:33:41;;;;;;;11.40;3.90;;;;;;;18.37;52.34;102316.28;5081472;28;20017;-58
2024/01/23 06:36:07;;;;;;;11.45;3.42;;;;;;;18.35;52.65;102312.94;5078522;28;20045;-58
2024/01/23 06:38:33;;;;;;;11.25;3.47;;;;;;;18.37;52.10;102326.41;5084189;28;20020;-58
2024/01/23 06:40:58;;;;;;;11.35;3.42;;;;;;;18.35;52.63;102323.94;5073237;28;20032;-44
2024/01/23 06:43:24;;;;;;;13.05;3.55;;;;;;;18.37;52.61;102326.41;5073400;28;20023;-45
2024/01/23 06:45:49;;;;;;;12.57;3.75;;;;;;;18.37;52.27;102334.66;5080295;28;20114;-45
2024/01/23 06:48:15;;;;;;;12.00;4.03;;;;;;;18.33;52.59;102331.59;5080078;28;20512;-47
2024/01/23 06:50:41;;;;;;;9.48;3.25;;;;;;;18.38;52.51;102336.31;5085115;28;20110;-44
2024/01/23 06:53:06;;;;;;;15.35;3.75;;;;;;;18.35;52.47;102332.16;5084679;28;20131;-43
2024/01/23 06:55:32;;;;;;;13.93;3.72;;;;;;;18.34;52.64;102332.41;5083103;28;20044;-45
2024/01/23 06:57:57;;;;;;;12.35;3.50;;;;;;;18.36;52.33;102336.59;5077914;28;20063;-47
2024/01/23 07:00:22;;;;;;;16.98;3.60;;;;;;;18.40;52.19;102331.44;5073390;28;20024;-47
2024/01/23 07:02:48;;;;;;;13.57;3.80;;;;;;;18.41;52.44;102333.94;5067540;28;20020;-44
2024/01/23 07:05:13;;;;;;;16.20;4.30;;;;;;;18.38;52.20;102337.19;5082166;28;20024;-45
2024/01/23 07:07:39;;;;;;;14.23;4.13;;;;;;;18.39;52.37;102338.84;5081460;28;20031;-45
2024/01/23 07:10:04;;;;;;;14.98;4.25;;;;;;;18.35;52.37;102331.34;5082499;28;20028;-45
2024/01/23 07:12:30;;;;;;;12.77;4.22;;;;;;;18.33;52.52;102330.75;5082405;28;20468;-43
2024/01/23 07:14:55;;;;;;;14.35;3.83;;;;;;;18.33;52.42;102336.22;5084504;28;20461;-48
2024/01/23 07:17:21;;;;;;;9.88;3.55;;;;;;;18.34;52.42;102335.16;5083868;28;20025;-47
2024/01/23 07:19:46;;;;;;;14.05;4.38;;;;;;;18.31;52.35;102339.22;5082866;28;20393;-58
2024/01/23 07:22:12;;;;;;;11.40;3.85;;;;;;;18.27;52.55;102341.63;5061125;28;20073;-57
2024/01/23 07:24:37;;;;;;;15.57;3.88;;;;;;;18.27;52.45;102329.78;5082677;28;20433;-58
2024/01/23 07:27:02;;;;;;;16.85;3.83;;;;;;;18.25;52.57;102338.28;5079190;28;20161;-58
2024/01/23 07:29:28;;;;;;;18.00;4.50;;;;;;;18.26;52.25;102333.63;5081757;28;20456;-57
2024/01/23 07:31:53;;;;;;;14.90;4.25;;;;;;;18.24;52.50;102330.28;5082695;28;20103;-58
2024/01/23 07:34:19;;;;;;;14.73;4.05;;;;;;;18.22;52.50;102338.78;5083624;28;20097;-57
2024/01/23 07:36:46;;;;;;;13.10;3.90;;;;;;;18.21;52.46;102344.47;5082628;28;20108;-57
2024/01/23 07:39:12;;;;;;;14.05;4.78;;;;;;;18.20;52.54;102338.16;5081461;28;20112;-57
2024/01/23 07:41:38;;;;;;;13.20;3.58;;;;;;;18.16;52.54;102353.47;5058865;28;20268;-56
2024/01/23 07:44:03;;;;;;;13.63;4.05;;;;;;;18.16;52.29;102347.97;5076442;28;20047;-58
2024/01/23 07:46:29;;;;;;;17.20;4.28;;;;;;;18.15;52.24;102365.50;5074143;28;20024;-43
2024/01/23 07:48:54;;;;;;;13.68;3.58;;;;;;;18.16;52.29;102363.59;5082166;28;20376;-58
2024/01/23 07:51:20;;;;;;;11.80;3.80;;;;;;;18.16;52.46;102369.06;5079312;28;20123;-58
2024/01/23 07:53:45;;;;;;;12.20;3.70;;;;;;;18.20;52.49;102373.03;5080555;28;20040;-57
2024/01/23 07:56:11;;;;;;;14.02;4.10;;;;;;;18.22;52.26;102385.44;5071681;28;20526;-58
2024/01/23 07:58:36;;;;;;;16.42;4.38;;;;;;;18.22;52.17;102390.91;5077239;28;20031;-42
2024/01/23 08:01:02;;;;;;;11.13;3.90;;;;;;;18.24;52.08;102399.72;5077753;28;20365;-46
2024/01/23 08:03:27;;;;;;;14.90;4.40;;;;;;;18.27;52.13;102409.38;5075741;28;20032;-45
2024/01/23 08:05:53;;;;;;;12.90;4.13;;;;;;;18.24;52.12;102410.69;5075840;28;20481;-57
2024/01/23 08:08:19;;;;;;;14.13;4.20;;;;;;;18.24;52.34;102418.09;5075012;28;20290;-44
2024/01/23 08:10:46;;;;;;;16.05;4.00;;;;;;;18.21;52.24;102427.66;5065264;28;20028;-47
2024/01/23 08:13:11;;;;;;;15.52;4.35;;;;;;;18.20;51.99;102434.22;5072565;28;20599;-48
2024/01/23 08:15:37;;;;;;;15.25;3.88;;;;;;;18.18;52.04;102441.84;5066287;28;20111;-47
2024/01/23 08:18:03;;;;;;;11.43;3.80;;;;;;;18.16;51.94;102451.41;5054825;28;20330;-48
2024/01/23 08:20:30;;;;;;;11.48;3.97;;;;;;;18.14;52.05;102456.31;5081786;28;20396;-45
2024/01/23 08:22:55;;;;;;;15.85;4.50;;;;;;;18.12;51.96;102460.13;5079701;28;20028;-46
2024/01/23 08:25:20;;;;;;;16.20;4.22;;;;;;;18.12;52.20;102459.28;5076974;28;20027;-48
2024/01/23 08:27:46;;;;;;;19.05;4.35;;;;;;;18.10;52.16;102465.00;5081337;28;20060;-44
2024/01/23 08:30:12;;;;;;;17.17;4.47;;;;;;;18.10;52.20;102475.97;5084373;28;20491;-47
2024/01/23 08:32:37;;;;;;;14.48;3.88;;;;;;;18.11;52.13;102477.66;5079627;28;20039;-46
2024/01/23 08:35:03;;;;;;;12.07;4.25;;;;;;;18.12;52.20;102486.72;5078506;28;20039;-45
2024/01/23 08:37:28;;;;;;;15.52;4.53;;;;;;;18.11;52.41;102476.81;5085652;28;20431;-47
2024/01/23 08:39:54;;;;;;;18.55;4.32;;;;;;;18.11;52.34;102483.13;5084303;28;20461;-58
2024/01/23 08:42:19;;;;;;;13.43;4.13;;;;;;;18.09;52.30;102496.25;5088536;28;20020;-57
2024/01/23 08:44:47;;;;;;;13.75;4.60;;;;;;;18.12;52.17;102500.44;5087819;28;20051;-48
2024/01/23 08:47:13;;;;;;;15.48;4.60;;;;;;;18.12;52.32;102495.78;5088698;28;20460;-44
2024/01/23 08:49:38;;;;;;;14.93;4.20;;;;;;;18.11;52.11;102483.13;5053418;28;20055;-45
2024/01/23 08:52:04;;;;;;;14.32;4.45;;;;;;;18.09;52.10;102488.03;5085680;28;20127;-42
2024/01/23 08:54:29;;;;;;;17.23;4.63;;;;;;;18.07;52.21;102484.66;5086570;28;20044;-45
2024/01/23 08:56:56;;;;;;;16.23;4.75;;;;;;;18.04;52.16;102481.59;5067782;28;20020;-47
2024/01/23 08:59:21;;;;;;;13.45;4.25;;;;;;;18.04;52.37;102482.41;5047923;28;20048;-46
2024/01/23 09:01:47;;;;;;;15.10;4.35;;;;;;;18.03;52.02;102474.44;5082665;28;20430;-47
2024/01/23 09:04:12;;;;;;;15.50;4.47;;;;;;;18.01;52.16;102479.31;5076211;28;20463;-45
2024/01/23 09:06:38;;;;;;;18.98;4.95;;;;;;;18.00;52.07;102470.25;5085548;28;20145;-51
2024/01/23 09:09:03;;;;;;;17.48;4.68;;;;;;;18.01;52.07;102468.34;5081436;28;20036;-46
2024/01/23 09:11:28;;;;;;;13.32;3.90;;;;;;;18.03;52.18;102475.25;5054943;28;20078;-58
2024/01/23 09:13:54;;;;;;;16.58;4.45;;;;;;;18.05;52.09;102481.34;5075210;28;20038;-58
2024/01/23 09:16:21;;;;;;;13.75;4.13;;;;;;;18.06;52.16;102485.78;5065745;28;20024;-58
2024/01/23 09:18:48;;;;;;;17.52;4.78;;;;;;;18.07;52.11;102487.41;5082352;28;20031;-43
2024/01/23 09:21:14;;;;;;;15.95;4.68;;;;;;;18.07;51.97;102486.59;5087226;28;20516;-58
2024/01/23 09:23:40;;;;;;;16.13;4.50;;;;;;;18.11;52.13;102480.41;5084356;28;20422;-44
2024/01/23 09:26:05;;;;;;;15.07;4.25;;;;;;;18.11;52.18;102488.63;5080756;28;20024;-44
2024/01/23 09:28:30;;;;;;;20.27;4.65;;;;;;;18.14;51.82;102486.50;5067776;28;20027;-56
2024/01/23 09:30:56;;;;;;;19.92;4.97;;;;;;;18.14;52.20;102478.25;5085840;28;20016;-58
2024/01/23 09:33:21;;;;;;;15.90;4.32;;;;;;;18.17;52.02;102484.06;5086297;28;20236;-47
2024/01/23 09:35:48;;;;;;;14.90;4.40;;;;;;;18.16;51.87;102482.44;5087018;28;20241;-43
2024/01/23 09:38:13;;;;;;;16.00;4.60;;;;;;;18.17;51.77;102481.34;5063521;28;20095;-57
2024/01/23 09:40:39;;;;;;;21.40;4.60;;;;;;;18.18;51.80;102473.97;5081911;28;20154;-57
2024/01/23 09:43:05;;;;;;;14.48;4.28;;;;;;;18.20;51.94;102467.16;5082509;28;20035;-50
2024/01/23 09:45:37;;;;;;;18.30;4.50;;;;;;;18.22;51.87;102465.00;5081747;28;20323;-58
2024/01/23 09:48:04;;;;;;;32.20;5.97;;;;;;;18.33;52.15;102465.22;5067047;28;20416;-52
2024/01/23 09:50:30;;;;;;;21.08;4.65;;;;;;;18.42;52.37;102467.38;5077005;28;20036;-54
2024/01/23 09:52:58;;;;;;;17.98;4.60;;;;;;;18.49;52.37;102475.50;5067048;28;20024;-50
2024/01/23 09:55:24;;;;;;;19.67;6.15;;;;;;;18.55;52.22;102484.66;5058583;28;20050;-45
2024/01/23 09:57:49;;;;;;;38.83;5.57;;;;;;;18.62;52.25;102481.81;5078693;28;20028;-46
2024/01/23 10:00:15;;;;;;;16.25;4.75;;;;;;;18.64;51.88;102480.47;5083938;28;20484;-42
2024/01/23 10:02:41;;;;;;;18.70;5.45;;;;;;;18.67;51.93;102479.16;5063833;28;20024;-41
2024/01/23 10:05:08;;;;;;;19.25;4.72;;;;;;;18.72;51.74;102477.38;5076268;28;20028;-47
2024/01/23 10:07:33;;;;;;;22.45;5.10;;;;;;;18.74;51.96;102480.69;5065325;28;20483;-44
2024/01/23 10:09:59;;;;;;;16.30;4.45;;;;;;;18.79;51.63;102484.63;5084585;28;20032;-44
2024/01/23 10:12:24;;;;;;;16.42;4.20;;;;;;;18.82;51.51;102490.50;5082118;28;20571;-41
2024/01/23 10:14:50;;;;;;;16.65;4.63;;;;;;;18.85;51.76;102492.72;5075934;28;20097;-42
2024/01/23 10:17:15;;;;;;;22.42;5.40;;;;;;;18.85;51.70;102495.47;5083477;28;20028;-45
2024/01/23 10:19:41;;;;;;;15.00;4.90;;;;;;;18.89;51.32;102488.41;5073060;28;20029;-42
2024/01/23 10:22:07;;;;;;;16.88;4.90;;;;;;;18.93;51.56;102486.03;5081570;28;20493;-43
2024/01/23 10:24:33;;;;;;;17.55;5.15;;;;;;;18.94;51.45;102495.97;5066465;28;20016;-45
2024/01/23 10:26:58;;;;;;;14.98;4.53;;;;;;;18.92;51.49;102495.38;5082337;28;20024;-47
2024/01/23 10:29:25;;;;;;;19.70;5.93;;;;;;;18.96;51.50;102481.97;5083519;28;20213;-44
2024/01/23 10:31:50;;;;;;;14.73;4.50;;;;;;;18.98;51.18;102486.16;5080688;28;20104;-46
2024/01/23 10:34:16;;;;;;;12.38;4.75;;;;;;;18.99;51.29;102487.00;5079671;28;20036;-46
2024/01/23 10:36:42;;;;;;;16.92;4.65;;;;;;;18.99;51.26;102471.31;5082375;28;20609;-42
2024/01/23 10:39:08;;;;;;;15.80;5.00;;;;;;;19.03;51.32;102463.44;5079802;28;20076;-47
2024/01/23 10:41:34;;;;;;;13.27;4.13;;;;;;;19.11;51.26;102464.97;5076956;28;20030;-46
2024/01/23 10:44:01;;;;;;;15.23;4.53;;;;;;;19.14;51.30;102464.47;5083048;28;20031;-45
2024/01/23 10:46:28;;;;;;;20.67;5.20;;;;;;;19.18;50.94;102465.66;5076052;28;20058;-44
2024/01/23 10:48:53;;;;;;;14.52;4.57;;;;;;;19.21;50.98;102467.91;5064528;28;20500;-43
2024/01/23 10:51:20;;;;;;;16.27;4.72;;;;;;;19.19;50.89;102453.56;5079916;28;20035;-45
2024/01/23 10:53:57;;;;;;;15.60;4.85;;;;;;;19.15;50.97;102452.41;5081744;28;20517;-49
2024/01/23 10:56:24;;;;;;;17.45;4.50;;;;;;;19.19;51.07;102437.06;5082931;28;20042;-50
2024/01/23 10:59:00;;;;;;;15.60;4.75;;;;;;;19.20;51.15;102427.75;5084460;28;20040;-49
2024/01/23 11:01:27;;;;;;;13.77;4.30;;;;;;;19.18;51.08;102424.44;5071690;28;20023;-47
2024/01/23 11:03:53;;;;;;;18.17;4.88;;;;;;;19.19;51.01;102413.19;5036983;28;20029;-51
2024/01/23 11:06:24;;;;;;;16.70;4.47;;;;;;;19.22;50.90;102422.84;5054277;28;20188;-52
2024/01/23 11:08:53;;;;;;;15.65;4.55;;;;;;;19.21;50.96;102429.44;5047980;28;20368;-52